createdAt,value
2022-08-21T00:00:00.983Z,1004.87
2022-08-21T00:01:00.994Z,1004.87
2022-08-21T00:02:01.001Z,1004.93
2022-08-21T00:03:00.971Z,1004.88
2022-08-21T00:04:00.939Z,1004.87
2022-08-21T00:05:00.944Z,1004.92
2022-08-21T00:06:00.913Z,1004.92
2022-08-21T00:07:00.911Z,1004.92
2022-08-21T00:08:00.897Z,1004.91
2022-08-21T00:09:00.883Z,1004.89
2022-08-21T00:10:00.885Z,1004.87
2022-08-21T00:11:00.909Z,1004.84
2022-08-21T00:12:00.848Z,1004.89
2022-08-21T00:13:00.842Z,1004.86
2022-08-21T00:14:00.827Z,1004.78
2022-08-21T00:15:00.823Z,1004.85
2022-08-21T00:16:00.839Z,1004.77
2022-08-21T00:17:00.808Z,1004.8
2022-08-21T00:18:00.783Z,1004.77
2022-08-21T00:19:00.781Z,1004.78
2022-08-21T00:20:00.768Z,1004.79
2022-08-21T00:21:00.754Z,1004.82
2022-08-21T00:22:00.758Z,1004.8
2022-08-21T00:23:00.732Z,1004.78
2022-08-21T00:24:00.731Z,1004.77
2022-08-21T00:25:00.713Z,1004.86
2022-08-21T00:26:00.709Z,1004.83
2022-08-21T00:27:00.696Z,1004.81
2022-08-21T00:28:00.704Z,1004.78
2022-08-21T00:29:00.671Z,1004.83
2022-08-21T00:30:00.654Z,1004.78
2022-08-21T00:31:00.660Z,1004.87
2022-08-21T00:32:00.636Z,1004.84
2022-08-21T00:33:00.631Z,1004.77
2022-08-21T00:34:00.641Z,1004.82
2022-08-21T00:35:00.600Z,1004.83
2022-08-21T00:36:00.591Z,1004.82
2022-08-21T00:37:00.583Z,1004.81
2022-08-21T00:38:00.573Z,1004.78
2022-08-21T00:39:00.573Z,1004.82
2022-08-21T00:40:00.562Z,1004.77
2022-08-21T00:41:00.558Z,1004.81
2022-08-21T00:42:00.528Z,1004.82
2022-08-21T00:43:00.519Z,1004.78
2022-08-21T00:44:00.500Z,1004.74
2022-08-21T00:45:00.516Z,1004.77
2022-08-21T00:46:00.486Z,1004.77
2022-08-21T00:47:00.488Z,1004.74
2022-08-21T00:48:00.461Z,1004.75
2022-08-21T00:49:08.032Z,1004.71
2022-08-21T00:50:00.545Z,1004.76
2022-08-21T00:51:00.468Z,1004.76
2022-08-21T00:52:00.417Z,1004.75
2022-08-21T00:53:00.408Z,1004.7
2022-08-21T00:54:00.396Z,1004.75
2022-08-21T00:55:00.405Z,1004.83
2022-08-21T00:56:00.386Z,1004.74
2022-08-21T00:57:00.371Z,1004.74
2022-08-21T00:58:00.402Z,1004.78
2022-08-21T00:59:00.354Z,1004.75
2022-08-21T01:00:00.342Z,1004.75
2022-08-21T01:01:00.353Z,1004.76
2022-08-21T01:02:07.884Z,1004.76
2022-08-21T01:03:00.304Z,1004.73
2022-08-21T01:04:00.286Z,1004.75
2022-08-21T01:05:00.277Z,1004.74
2022-08-21T01:06:00.267Z,1004.77
2022-08-21T01:07:00.262Z,1004.76
2022-08-21T01:08:00.249Z,1004.73
2022-08-21T01:09:00.249Z,1004.74
2022-08-21T01:10:00.227Z,1004.79
2022-08-21T01:11:00.213Z,1004.8
2022-08-21T01:12:00.215Z,1004.8
2022-08-21T01:13:00.199Z,1004.76
2022-08-21T01:14:00.179Z,1004.75
2022-08-21T01:15:00.178Z,1004.79
2022-08-21T01:16:00.157Z,1004.84
2022-08-21T01:17:00.154Z,1004.82
2022-08-21T01:18:00.141Z,1004.82
2022-08-21T01:19:00.126Z,1004.76
2022-08-21T01:20:00.128Z,1004.79
2022-08-21T01:21:00.126Z,1004.87
2022-08-21T01:22:00.097Z,1004.9
2022-08-21T01:23:00.089Z,1004.89
2022-08-21T01:24:00.094Z,1004.9
2022-08-21T01:25:00.064Z,1004.89
2022-08-21T01:26:00.070Z,1004.97
2022-08-21T01:27:00.045Z,1004.93
2022-08-21T01:28:00.029Z,1004.94
2022-08-21T01:29:00.017Z,1005.01
2022-08-21T01:30:00.009Z,1004.97
2022-08-21T01:31:00.004Z,1004.99
2022-08-21T01:31:59.988Z,1004.96
2022-08-21T01:32:59.984Z,1004.98
2022-08-21T01:33:59.966Z,1004.92
2022-08-21T01:34:59.952Z,1004.84
2022-08-21T01:35:59.943Z,1004.87
2022-08-21T01:36:59.941Z,1004.86
2022-08-21T01:37:59.931Z,1004.85
2022-08-21T01:38:59.912Z,1004.86
2022-08-21T01:39:59.905Z,1004.82
2022-08-21T01:40:59.898Z,1004.84
2022-08-21T01:41:59.880Z,1004.86
2022-08-21T01:42:59.875Z,1004.86
2022-08-21T01:43:59.859Z,1004.83
2022-08-21T01:44:59.852Z,1004.83
2022-08-21T01:45:59.849Z,1004.79
2022-08-21T01:46:59.845Z,1004.85
2022-08-21T01:47:59.817Z,1004.87
2022-08-21T01:48:59.812Z,1004.84
2022-08-21T01:49:59.801Z,1004.81
2022-08-21T01:50:59.783Z,1004.79
2022-08-21T01:51:59.777Z,1004.76
2022-08-21T01:52:59.761Z,1004.77
2022-08-21T01:53:59.754Z,1004.72
2022-08-21T01:54:59.748Z,1004.65
2022-08-21T01:55:59.744Z,1004.64
2022-08-21T01:56:59.724Z,1004.59
2022-08-21T01:57:59.736Z,1004.62
2022-08-21T01:58:59.704Z,1004.68
2022-08-21T01:59:59.712Z,1004.68
2022-08-21T02:00:59.676Z,1004.72
2022-08-21T02:01:59.663Z,1004.66
2022-08-21T02:02:59.659Z,1004.64
2022-08-21T02:03:59.644Z,1004.66
2022-08-21T02:04:59.638Z,1004.63
2022-08-21T02:05:59.621Z,1004.65
2022-08-21T02:06:59.610Z,1004.59
2022-08-21T02:07:59.602Z,1004.58
2022-08-21T02:08:59.598Z,1004.57
2022-08-21T02:09:59.583Z,1004.56
2022-08-21T02:10:59.583Z,1004.59
2022-08-21T02:11:59.562Z,1004.54
2022-08-21T02:12:59.552Z,1004.53
2022-08-21T02:13:59.556Z,1004.5
2022-08-21T02:14:59.528Z,1004.51
2022-08-21T02:15:59.520Z,1004.48
2022-08-21T02:16:59.510Z,1004.44
2022-08-21T02:17:59.496Z,1004.5
2022-08-21T02:18:59.489Z,1004.48
2022-08-21T02:19:59.471Z,1004.44
2022-08-21T02:20:59.465Z,1004.51
2022-08-21T02:21:59.457Z,1004.46
2022-08-21T02:22:59.451Z,1004.52
2022-08-21T02:23:59.433Z,1004.51
2022-08-21T02:24:59.441Z,1004.5
2022-08-21T02:25:59.412Z,1004.48
2022-08-21T02:26:59.397Z,1004.52
2022-08-21T02:27:59.392Z,1004.49
2022-08-21T02:28:59.380Z,1004.47
2022-08-21T02:29:59.372Z,1004.47
2022-08-21T02:30:59.367Z,1004.48
2022-08-21T02:31:59.358Z,1004.51
2022-08-21T02:32:59.332Z,1004.49
2022-08-21T02:33:59.327Z,1004.46
2022-08-21T02:34:59.316Z,1004.42
2022-08-21T02:35:59.312Z,1004.47
2022-08-21T02:36:59.318Z,1004.52
2022-08-21T02:37:59.281Z,1004.54
2022-08-21T02:38:59.266Z,1004.53
2022-08-21T02:39:59.264Z,1004.45
2022-08-21T02:40:59.256Z,1004.54
2022-08-21T02:41:59.259Z,1004.57
2022-08-21T02:42:59.226Z,1004.53
2022-08-21T02:43:59.224Z,1004.51
2022-08-21T02:44:59.206Z,1004.56
2022-08-21T02:45:59.199Z,1004.54
2022-08-21T02:46:59.190Z,1004.53
2022-08-21T02:47:59.192Z,1004.45
2022-08-21T02:48:59.164Z,1004.54
2022-08-21T02:49:59.154Z,1004.5
2022-08-21T02:50:59.151Z,1004.45
2022-08-21T02:51:59.140Z,1004.46
2022-08-21T02:52:59.128Z,1004.47
2022-08-21T02:53:59.112Z,1004.48
2022-08-21T02:54:59.128Z,1004.44
2022-08-21T02:55:59.086Z,1004.5
2022-08-21T02:56:59.086Z,1004.45
2022-08-21T02:57:59.065Z,1004.45
2022-08-21T02:58:59.057Z,1004.41
2022-08-21T02:59:59.050Z,1004.36
2022-08-21T03:00:59.040Z,1004.4
2022-08-21T03:01:59.031Z,1004.43
2022-08-21T03:02:59.009Z,1004.38
2022-08-21T03:03:59.000Z,1004.35
2022-08-21T03:04:59.002Z,1004.37
2022-08-21T03:05:58.978Z,1004.35
2022-08-21T03:06:58.983Z,1004.4
2022-08-21T03:07:58.966Z,1004.36
2022-08-21T03:08:58.955Z,1004.37
2022-08-21T03:09:58.940Z,1004.35
2022-08-21T03:10:58.937Z,1004.38
2022-08-21T03:11:58.920Z,1004.37
2022-08-21T03:12:58.917Z,1004.41
2022-08-21T03:13:58.897Z,1004.38
2022-08-21T03:14:58.889Z,1004.43
2022-08-21T03:15:58.877Z,1004.47
2022-08-21T03:16:58.871Z,1004.44
2022-08-21T03:17:58.865Z,1004.45
2022-08-21T03:18:58.848Z,1004.48
2022-08-21T03:19:58.832Z,1004.39
2022-08-21T03:20:58.824Z,1004.46
2022-08-21T03:21:58.818Z,1004.47
2022-08-21T03:22:58.804Z,1004.44
2022-08-21T03:23:58.793Z,1004.48
2022-08-21T03:24:58.788Z,1004.51
2022-08-21T03:25:58.766Z,1004.56
2022-08-21T03:26:58.760Z,1004.49
2022-08-21T03:27:58.754Z,1004.5
2022-08-21T03:28:58.738Z,1004.46
2022-08-21T03:29:58.725Z,1004.51
2022-08-21T03:30:58.713Z,1004.53
2022-08-21T03:31:58.703Z,1004.54
2022-08-21T03:32:58.695Z,1004.58
2022-08-21T03:33:58.684Z,1004.53
2022-08-21T03:34:58.673Z,1004.55
2022-08-21T03:35:58.665Z,1004.58
2022-08-21T03:36:58.665Z,1004.59
2022-08-21T03:37:58.640Z,1004.5
2022-08-21T03:38:58.634Z,1004.51
2022-08-21T03:39:58.627Z,1004.52
2022-08-21T03:40:58.621Z,1004.53
2022-08-21T03:41:58.654Z,1004.57
2022-08-21T03:42:58.583Z,1004.5
2022-08-21T03:43:58.574Z,1004.5
2022-08-21T03:44:58.571Z,1004.52
2022-08-21T03:45:58.568Z,1004.52
2022-08-21T03:46:58.560Z,1004.51
2022-08-21T03:47:58.536Z,1004.54
2022-08-21T03:48:58.523Z,1004.55
2022-08-21T03:49:58.519Z,1004.5
2022-08-21T03:50:58.502Z,1004.53
2022-08-21T03:51:58.568Z,1004.53
2022-08-21T03:52:59.476Z,1004.54
2022-08-21T03:53:58.469Z,1004.49
2022-08-21T03:54:58.464Z,1004.56
2022-08-21T03:55:58.445Z,1004.57
2022-08-21T03:56:58.442Z,1004.55
2022-08-21T03:57:58.430Z,1004.56
2022-08-21T03:58:58.416Z,1004.55
2022-08-21T03:59:58.410Z,1004.55
2022-08-21T04:00:58.420Z,1004.49
2022-08-21T04:01:58.389Z,1004.56
2022-08-21T04:02:58.437Z,1004.53
2022-08-21T04:03:58.365Z,1004.55
2022-08-21T04:04:58.352Z,1004.54
2022-08-21T04:05:58.342Z,1004.54
2022-08-21T04:06:58.330Z,1004.51
2022-08-21T04:07:58.318Z,1004.54
2022-08-21T04:08:58.310Z,1004.59
2022-08-21T04:09:58.315Z,1004.66
2022-08-21T04:10:58.298Z,1004.61
2022-08-21T04:11:58.298Z,1004.66
2022-08-21T04:12:58.263Z,1004.67
2022-08-21T04:13:58.258Z,1004.72
2022-08-21T04:14:58.244Z,1004.68
2022-08-21T04:15:58.244Z,1004.77
2022-08-21T04:16:58.235Z,1004.75
2022-08-21T04:17:58.226Z,1004.74
2022-08-21T04:18:58.207Z,1004.69
2022-08-21T04:19:58.195Z,1004.77
2022-08-21T04:20:58.183Z,1004.76
2022-08-21T04:21:58.176Z,1004.78
2022-08-21T04:22:58.169Z,1004.88
2022-08-21T04:23:58.153Z,1004.84
2022-08-21T04:24:58.139Z,1004.87
2022-08-21T04:25:58.137Z,1004.85
2022-08-21T04:26:58.117Z,1004.82
2022-08-21T04:27:58.124Z,1004.82
2022-08-21T04:28:58.094Z,1004.83
2022-08-21T04:29:58.087Z,1004.86
2022-08-21T04:30:58.078Z,1004.87
2022-08-21T04:31:58.068Z,1004.88
2022-08-21T04:32:58.063Z,1004.87
2022-08-21T04:33:58.055Z,1004.92
2022-08-21T04:34:58.031Z,1004.9
2022-08-21T04:35:58.026Z,1004.92
2022-08-21T04:36:58.011Z,1004.83
2022-08-21T04:37:57.997Z,1004.86
2022-08-21T04:38:57.990Z,1004.92
2022-08-21T04:39:57.980Z,1004.93
2022-08-21T04:40:57.967Z,1004.94
2022-08-21T04:41:57.993Z,1004.9
2022-08-21T04:42:58.002Z,1004.93
2022-08-21T04:43:57.936Z,1004.93
2022-08-21T04:44:57.958Z,1004.94
2022-08-21T04:45:57.917Z,1004.95
2022-08-21T04:46:57.905Z,1005.01
2022-08-21T04:47:57.894Z,1004.96
2022-08-21T04:48:57.884Z,1004.97
2022-08-21T04:49:57.872Z,1004.98
2022-08-21T04:50:57.860Z,1004.94
2022-08-21T04:51:57.852Z,1004.95
2022-08-21T04:52:57.840Z,1005.01
2022-08-21T04:53:57.830Z,1005.01
2022-08-21T04:54:57.822Z,1005.02
2022-08-21T04:55:57.813Z,1005.04
2022-08-21T04:56:57.806Z,1005.01
2022-08-21T04:57:57.782Z,1005.03
2022-08-21T04:58:57.773Z,1005.04
2022-08-21T04:59:57.778Z,1005.04
2022-08-21T05:00:57.754Z,1005.04
2022-08-21T05:01:57.747Z,1005.05
2022-08-21T05:02:57.737Z,1005.07
2022-08-21T05:03:57.723Z,1005.07
2022-08-21T05:04:57.722Z,1005.06
2022-08-21T05:05:57.714Z,1005.06
2022-08-21T05:06:57.687Z,1005.12
2022-08-21T05:07:57.681Z,1005.08
2022-08-21T05:08:57.673Z,1005.07
2022-08-21T05:09:57.657Z,1005.06
2022-08-21T05:10:57.647Z,1005.08
2022-08-21T05:11:57.636Z,1005.04
2022-08-21T05:12:57.624Z,1005.08
2022-08-21T05:13:57.626Z,1005.09
2022-08-21T05:14:57.619Z,1005.1
2022-08-21T05:15:57.590Z,1005.1
2022-08-21T05:16:57.585Z,1005.06
2022-08-21T05:17:57.577Z,1005.08
2022-08-21T05:18:57.561Z,1005.14
2022-08-21T05:19:57.554Z,1005.06
2022-08-21T05:20:57.540Z,1005.09
2022-08-21T05:21:57.526Z,1005.11
2022-08-21T05:22:57.525Z,1005.1
2022-08-21T05:23:57.503Z,1005.06
2022-08-21T05:24:57.495Z,1005.05
2022-08-21T05:25:57.486Z,1005.11
2022-08-21T05:26:57.507Z,1004.98
2022-08-21T05:27:57.472Z,1005.05
2022-08-21T05:28:57.456Z,1005.01
2022-08-21T05:29:57.447Z,1005.03
2022-08-21T05:30:57.430Z,1005.04
2022-08-21T05:31:57.442Z,1005.11
2022-08-21T05:32:57.408Z,1005.09
2022-08-21T05:33:57.404Z,1005.13
2022-08-21T05:34:57.389Z,1005.05
2022-08-21T05:35:57.381Z,1005.13
2022-08-21T05:36:57.369Z,1005.03
2022-08-21T05:37:57.359Z,1005.06
2022-08-21T05:38:57.383Z,1005.03
2022-08-21T05:39:57.336Z,1005.07
2022-08-21T05:40:57.320Z,1005.03
2022-08-21T05:41:57.316Z,1005.07
2022-08-21T05:42:57.309Z,1005.07
2022-08-21T05:43:57.300Z,1005.06
2022-08-21T05:44:57.287Z,1005.06
2022-08-21T05:45:57.268Z,1005.16
2022-08-21T05:46:57.267Z,1005.15
2022-08-21T05:47:57.249Z,1005.12
2022-08-21T05:48:57.272Z,1005.18
2022-08-21T05:49:57.232Z,1005.21
2022-08-21T05:50:57.219Z,1005.23
2022-08-21T05:51:57.208Z,1005.2
2022-08-21T05:52:57.204Z,1005.2
2022-08-21T05:53:57.183Z,1005.19
2022-08-21T05:54:57.181Z,1005.22
2022-08-21T05:55:57.161Z,1005.22
2022-08-21T05:56:57.160Z,1005.22
2022-08-21T05:57:57.156Z,1005.19
2022-08-21T05:58:57.134Z,1005.17
2022-08-21T05:59:57.121Z,1005.11
2022-08-21T06:00:57.121Z,1005.13
2022-08-21T06:01:57.098Z,1005.11
2022-08-21T06:02:57.093Z,1005.17
2022-08-21T06:03:57.080Z,1005.12
2022-08-21T06:04:57.069Z,1005.16
2022-08-21T06:05:57.080Z,1005.18
2022-08-21T06:06:57.043Z,1005.14
2022-08-21T06:07:57.067Z,1005.13
2022-08-21T06:08:57.022Z,1005.13
2022-08-21T06:09:57.019Z,1005.16
2022-08-21T06:10:57.001Z,1005.15
2022-08-21T06:11:56.991Z,1005.16
2022-08-21T06:12:56.982Z,1005.18
2022-08-21T06:13:56.972Z,1005.18
2022-08-21T06:14:56.959Z,1005.17
2022-08-21T06:15:56.951Z,1005.12
2022-08-21T06:16:56.935Z,1005.14
2022-08-21T06:17:56.928Z,1005.13
2022-08-21T06:18:56.915Z,1005.13
2022-08-21T06:19:56.904Z,1005.1
2022-08-21T06:20:56.903Z,1005.09
2022-08-21T06:21:56.887Z,1005.13
2022-08-21T06:22:56.876Z,1005.14
2022-08-21T06:23:56.900Z,1005.12
2022-08-21T06:24:56.852Z,1005.15
2022-08-21T06:25:56.841Z,1005.1
2022-08-21T06:26:56.835Z,1005.1
2022-08-21T06:27:56.825Z,1005.11
2022-08-21T06:28:56.815Z,1005.1
2022-08-21T06:29:56.819Z,1005.14
2022-08-21T06:30:56.783Z,1005.09
2022-08-21T06:31:56.796Z,1005.11
2022-08-21T06:32:56.780Z,1005.11
2022-08-21T06:33:56.760Z,1005.11
2022-08-21T06:34:56.749Z,1005.15
2022-08-21T06:35:56.730Z,1005.12
2022-08-21T06:36:56.720Z,1005.11
2022-08-21T06:37:56.721Z,1005.1
2022-08-21T06:38:56.715Z,1005.1
2022-08-21T06:39:56.687Z,1005.17
2022-08-21T06:40:56.706Z,1005.14
2022-08-21T06:41:56.684Z,1005.1
2022-08-21T06:42:56.653Z,1005.16
2022-08-21T06:43:56.650Z,1005.14
2022-08-21T06:44:56.656Z,1005.12
2022-08-21T06:45:56.628Z,1005.1
2022-08-21T06:46:56.614Z,1005.16
2022-08-21T06:47:56.602Z,1005.09
2022-08-21T06:48:56.597Z,1005.08
2022-08-21T06:49:56.575Z,1005.06
2022-08-21T06:50:56.567Z,1005.05
2022-08-21T06:51:56.564Z,1005.09
2022-08-21T06:52:56.549Z,1005.02
2022-08-21T06:53:56.542Z,1005.03
2022-08-21T06:54:56.532Z,1005.01
2022-08-21T06:55:56.519Z,1004.97
2022-08-21T06:56:56.531Z,1004.99
2022-08-21T06:57:56.507Z,1005.01
2022-08-21T06:58:56.483Z,1004.99
2022-08-21T06:59:56.475Z,1005.04
2022-08-21T07:00:56.480Z,1004.98
2022-08-21T07:01:56.454Z,1004.97
2022-08-21T07:03:04.065Z,1005.04
2022-08-21T07:03:56.469Z,1004.99
2022-08-21T07:04:56.516Z,1005.05
2022-08-21T07:05:57.409Z,1005.05
2022-08-21T07:06:56.424Z,1005.05
2022-08-21T07:07:56.389Z,1005.01
2022-08-21T07:08:56.371Z,1004.98
2022-08-21T07:09:56.364Z,1005.04
2022-08-21T07:10:56.375Z,1004.95
2022-08-21T07:11:56.357Z,1004.94
2022-08-21T07:12:56.331Z,1005
2022-08-21T07:13:56.326Z,1004.97
2022-08-21T07:14:56.323Z,1005
2022-08-21T07:15:56.330Z,1004.97
2022-08-21T07:16:56.293Z,1004.99
2022-08-21T07:17:56.281Z,1004.96
2022-08-21T07:18:56.271Z,1004.97
2022-08-21T07:19:56.267Z,1004.95
2022-08-21T07:20:56.246Z,1004.99
2022-08-21T07:21:56.245Z,1004.94
2022-08-21T07:22:56.245Z,1004.99
2022-08-21T07:23:56.212Z,1004.93
2022-08-21T07:24:56.203Z,1004.92
2022-08-21T07:25:56.194Z,1004.86
2022-08-21T07:26:56.184Z,1004.86
2022-08-21T07:27:56.184Z,1004.88
2022-08-21T07:28:56.188Z,1004.89
2022-08-21T07:29:56.236Z,1004.87
2022-08-21T07:30:56.146Z,1004.84
2022-08-21T07:31:56.148Z,1004.86
2022-08-21T07:32:56.165Z,1004.91
2022-08-21T07:33:56.110Z,1004.86
2022-08-21T07:34:56.094Z,1004.86
2022-08-21T07:35:56.092Z,1004.89
2022-08-21T07:36:56.096Z,1004.87
2022-08-21T07:37:56.075Z,1004.85
2022-08-21T07:38:56.066Z,1004.85
2022-08-21T07:39:56.045Z,1004.87
2022-08-21T07:40:56.047Z,1004.81
2022-08-21T07:41:56.031Z,1004.84
2022-08-21T07:42:56.070Z,1004.82
2022-08-21T07:43:56.053Z,1004.84
2022-08-21T07:44:55.994Z,1004.82
2022-08-21T07:45:56.048Z,1004.85
2022-08-21T07:46:56.060Z,1004.79
2022-08-21T07:47:56.967Z,1004.81
2022-08-21T07:48:56.044Z,1004.84
2022-08-21T07:49:56.028Z,1004.79
2022-08-21T07:50:55.930Z,1004.73
2022-08-21T07:51:55.916Z,1004.75
2022-08-21T07:52:55.915Z,1004.74
2022-08-21T07:53:55.919Z,1004.79
2022-08-21T07:54:55.880Z,1004.74
2022-08-21T07:55:56.889Z,1004.78
2022-08-21T07:56:55.860Z,1004.78
2022-08-21T07:57:55.847Z,1004.74
2022-08-21T07:58:55.846Z,1004.76
2022-08-21T07:59:55.839Z,1004.77
2022-08-21T08:00:55.829Z,1004.77
2022-08-21T08:01:55.939Z,1004.77
2022-08-21T08:02:55.795Z,1004.78
2022-08-21T08:03:55.788Z,1004.74
2022-08-21T08:04:55.809Z,1004.78
2022-08-21T08:05:55.791Z,1004.73
2022-08-21T08:06:55.751Z,1004.84
2022-08-21T08:07:55.735Z,1004.78
2022-08-21T08:08:55.759Z,1004.73
2022-08-21T08:09:55.725Z,1004.78
2022-08-21T08:10:55.817Z,1004.81
2022-08-21T08:11:55.689Z,1004.77
2022-08-21T08:12:55.689Z,1004.83
2022-08-21T08:13:55.667Z,1004.76
2022-08-21T08:14:55.660Z,1004.77
2022-08-21T08:15:55.658Z,1004.72
2022-08-21T08:16:55.671Z,1004.73
2022-08-21T08:17:55.682Z,1004.69
2022-08-21T08:18:55.648Z,1004.72
2022-08-21T08:19:55.677Z,1004.71
2022-08-21T08:20:55.640Z,1004.72
2022-08-21T08:21:55.652Z,1004.74
2022-08-21T08:22:55.643Z,1004.65
2022-08-21T08:23:55.649Z,1004.7
2022-08-21T08:24:55.607Z,1004.7
2022-08-21T08:25:55.595Z,1004.68
2022-08-21T08:26:55.550Z,1004.67
2022-08-21T08:27:55.537Z,1004.62
2022-08-21T08:28:55.509Z,1004.65
2022-08-21T08:29:56.510Z,1004.65
2022-08-21T08:30:55.504Z,1004.63
2022-08-21T08:31:55.481Z,1004.61
2022-08-21T08:32:55.474Z,1004.66
2022-08-21T08:33:55.454Z,1004.68
2022-08-21T08:34:55.444Z,1004.64
2022-08-21T08:35:55.436Z,1004.62
2022-08-21T08:36:55.426Z,1004.65
2022-08-21T08:37:55.414Z,1004.67
2022-08-21T08:38:55.408Z,1004.6
2022-08-21T08:39:55.389Z,1004.61
2022-08-21T08:40:55.395Z,1004.61
2022-08-21T08:41:55.400Z,1004.61
2022-08-21T08:42:55.390Z,1004.57
2022-08-21T08:43:55.350Z,1004.61
2022-08-21T08:44:55.347Z,1004.62
2022-08-21T08:45:55.352Z,1004.6
2022-08-21T08:46:55.335Z,1004.6
2022-08-21T08:47:55.414Z,1004.57
2022-08-21T08:48:55.326Z,1004.58
2022-08-21T08:49:55.301Z,1004.56
2022-08-21T08:50:55.292Z,1004.59
2022-08-21T08:51:55.274Z,1004.59
2022-08-21T08:52:55.255Z,1004.49
2022-08-21T08:53:55.249Z,1004.52
2022-08-21T08:54:55.234Z,1004.52
2022-08-21T08:55:55.240Z,1004.59
2022-08-21T08:56:55.228Z,1004.49
2022-08-21T08:57:55.199Z,1004.49
2022-08-21T08:58:55.208Z,1004.5
2022-08-21T08:59:55.187Z,1004.47
2022-08-21T09:00:55.198Z,1004.5
2022-08-21T09:01:55.163Z,1004.53
2022-08-21T09:02:55.160Z,1004.47
2022-08-21T09:03:55.147Z,1004.49
2022-08-21T09:04:55.130Z,1004.5
2022-08-21T09:05:55.145Z,1004.48
2022-08-21T09:06:55.133Z,1004.47
2022-08-21T09:07:55.107Z,1004.51
2022-08-21T09:08:55.087Z,1004.4
2022-08-21T09:09:55.094Z,1004.44
2022-08-21T09:10:55.231Z,1004.4
2022-08-21T09:11:55.081Z,1004.45
2022-08-21T09:12:55.094Z,1004.48
2022-08-21T09:13:55.047Z,1004.49
2022-08-21T09:14:55.030Z,1004.51
2022-08-21T09:15:55.022Z,1004.42
2022-08-21T09:16:55.018Z,1004.45
2022-08-21T09:17:54.991Z,1004.38
2022-08-21T09:18:54.985Z,1004.46
2022-08-21T09:19:54.987Z,1004.48
2022-08-21T09:20:54.981Z,1004.45
2022-08-21T09:21:54.949Z,1004.46
2022-08-21T09:22:55.007Z,1004.5
2022-08-21T09:23:54.928Z,1004.4
2022-08-21T09:24:54.928Z,1004.43
2022-08-21T09:25:54.947Z,1004.39
2022-08-21T09:26:54.897Z,1004.41
2022-08-21T09:27:54.887Z,1004.36
2022-08-21T09:28:54.876Z,1004.37
2022-08-21T09:29:54.870Z,1004.37
2022-08-21T09:30:54.856Z,1004.35
2022-08-21T09:31:54.846Z,1004.46
2022-08-21T09:32:54.865Z,1004.43
2022-08-21T09:33:54.827Z,1004.42
2022-08-21T09:34:54.830Z,1004.38
2022-08-21T09:35:54.823Z,1004.37
2022-08-21T09:36:54.799Z,1004.38
2022-08-21T09:37:54.780Z,1004.37
2022-08-21T09:38:54.767Z,1004.39
2022-08-21T09:39:54.800Z,1004.41
2022-08-21T09:40:54.755Z,1004.45
2022-08-21T09:41:54.748Z,1004.31
2022-08-21T09:42:54.747Z,1004.32
2022-08-21T09:43:54.735Z,1004.36
2022-08-21T09:44:54.714Z,1004.29
2022-08-21T09:45:54.694Z,1004.32
2022-08-21T09:46:54.702Z,1004.31
2022-08-21T09:47:54.687Z,1004.33
2022-08-21T09:48:54.674Z,1004.25
2022-08-21T09:49:54.649Z,1004.28
2022-08-21T09:50:54.651Z,1004.29
2022-08-21T09:51:54.633Z,1004.23
2022-08-21T09:52:54.618Z,1004.3
2022-08-21T09:53:54.615Z,1004.35
2022-08-21T09:54:54.629Z,1004.38
2022-08-21T09:55:54.589Z,1004.35
2022-08-21T09:56:54.579Z,1004.34
2022-08-21T09:57:54.587Z,1004.39
2022-08-21T09:58:54.560Z,1004.41
2022-08-21T09:59:54.554Z,1004.39
2022-08-21T10:00:54.536Z,1004.37
2022-08-21T10:01:54.531Z,1004.31
2022-08-21T10:02:54.524Z,1004.15
2022-08-21T10:03:54.518Z,1004.18
2022-08-21T10:04:54.498Z,1004.19
2022-08-21T10:05:54.515Z,1004.17
2022-08-21T10:06:54.555Z,1004.13
2022-08-21T10:07:54.520Z,1004.34
2022-08-21T10:08:54.455Z,1004.2
2022-08-21T10:09:54.442Z,1004.2
2022-08-21T10:10:54.525Z,1004.25
2022-08-21T10:11:54.447Z,1004.21
2022-08-21T10:12:54.407Z,1003.95
2022-08-21T10:13:54.408Z,1004.02
2022-08-21T10:14:54.394Z,1004.2
2022-08-21T10:15:54.377Z,1004.12
2022-08-21T10:16:54.369Z,1004.2
2022-08-21T10:17:54.385Z,1004.18
2022-08-21T10:18:54.346Z,1004.21
2022-08-21T10:19:54.336Z,1003.99
2022-08-21T10:20:54.321Z,1004.14
2022-08-21T10:21:54.320Z,1004.17
2022-08-21T10:22:54.309Z,1004.17
2022-08-21T10:23:54.319Z,1004.25
2022-08-21T10:24:54.286Z,1004.22
2022-08-21T10:25:54.277Z,1004.15
2022-08-21T10:26:54.295Z,1004.16
2022-08-21T10:27:54.293Z,1004.24
2022-08-21T10:28:54.245Z,1004.19
2022-08-21T10:29:54.227Z,1004.17
2022-08-21T10:30:54.237Z,1004.17
2022-08-21T10:31:54.207Z,1004.18
2022-08-21T10:32:54.229Z,1004.08
2022-08-21T10:33:54.195Z,1004.02
2022-08-21T10:34:54.195Z,1004.04
2022-08-21T10:35:54.170Z,1004.01
2022-08-21T10:36:54.169Z,1004.07
2022-08-21T10:37:54.160Z,1004
2022-08-21T10:38:54.148Z,1004
2022-08-21T10:39:54.127Z,1004.04
2022-08-21T10:40:54.151Z,1003.94
2022-08-21T10:41:54.127Z,1004.05
2022-08-21T10:42:54.102Z,1004.03
2022-08-21T10:43:54.082Z,1004
2022-08-21T10:44:54.072Z,1003.97
2022-08-21T10:45:54.128Z,1003.83
2022-08-21T10:46:54.064Z,1003.86
2022-08-21T10:47:54.040Z,1003.99
2022-08-21T10:48:54.028Z,1004.02
2022-08-21T10:49:54.024Z,1003.97
2022-08-21T10:50:54.041Z,1003.92
2022-08-21T10:51:54.036Z,1004
2022-08-21T10:52:54.019Z,1004.01
2022-08-21T10:53:53.982Z,1004.03
2022-08-21T10:54:53.972Z,1004.03
2022-08-21T10:55:53.994Z,1003.73
2022-08-21T10:56:53.953Z,1003.83
2022-08-21T10:57:53.939Z,1004.03
2022-08-21T10:58:53.964Z,1003.78
2022-08-21T10:59:53.936Z,1004.1
2022-08-21T11:00:53.929Z,1004.01
2022-08-21T11:01:53.897Z,1004.03
2022-08-21T11:02:53.889Z,1004.03
2022-08-21T11:03:53.877Z,1003.92
2022-08-21T11:04:53.867Z,1003.75
2022-08-21T11:05:53.854Z,1004.19
2022-08-21T11:06:53.868Z,1004.08
2022-08-21T11:07:53.829Z,1004.1
2022-08-21T11:08:53.848Z,1004.09
2022-08-21T11:09:53.814Z,1004.03
2022-08-21T11:10:53.811Z,1004.12
2022-08-21T11:11:53.791Z,1004.06
2022-08-21T11:12:53.778Z,1004.11
2022-08-21T11:13:53.773Z,1004.14
2022-08-21T11:14:53.769Z,1004.09
2022-08-21T11:15:53.777Z,1004.06
2022-08-21T11:16:53.775Z,1004.11
2022-08-21T11:17:53.742Z,1004.08
2022-08-21T11:18:53.719Z,1004.02
2022-08-21T11:19:53.727Z,1004.08
2022-08-21T11:20:54.383Z,1004.08
2022-08-21T11:21:53.716Z,1003.82
2022-08-21T11:22:53.680Z,1003.89
2022-08-21T11:23:53.676Z,1003.77
2022-08-21T11:24:53.658Z,1004.09
2022-08-21T11:25:53.652Z,1004.14
2022-08-21T11:26:53.651Z,1004.1
2022-08-21T11:27:53.658Z,1004.13
2022-08-21T11:28:53.625Z,1004.13
2022-08-21T11:29:53.622Z,1004.13
2022-08-21T11:30:53.593Z,1004.09
2022-08-21T11:31:53.615Z,1004.11
2022-08-21T11:32:53.587Z,1004.1
2022-08-21T11:33:53.563Z,1004
2022-08-21T11:34:53.562Z,1004.07
2022-08-21T11:35:53.556Z,1004.09
2022-08-21T11:36:53.539Z,1004.03
2022-08-21T11:37:53.528Z,1004.05
2022-08-21T11:38:53.528Z,1003.99
2022-08-21T11:39:53.506Z,1004.04
2022-08-21T11:40:53.503Z,1004.06
2022-08-21T11:41:53.572Z,1003.84
2022-08-21T11:42:53.489Z,1003.73
2022-08-21T11:43:53.477Z,1003.72
2022-08-21T11:44:53.497Z,1003.77
2022-08-21T11:45:53.471Z,1004.01
2022-08-21T11:46:53.442Z,1003.72
2022-08-21T11:47:53.449Z,1003.8
2022-08-21T11:48:53.422Z,1003.73
2022-08-21T11:49:53.412Z,1003.73
2022-08-21T11:50:53.407Z,1003.65
2022-08-21T11:51:53.389Z,1003.67
2022-08-21T11:52:53.461Z,1003.8
2022-08-21T11:53:53.388Z,1003.65
2022-08-21T11:54:53.357Z,1003.76
2022-08-21T11:55:53.345Z,1003.69
2022-08-21T11:56:53.342Z,1003.71
2022-08-21T11:57:53.360Z,1003.71
2022-08-21T11:58:53.335Z,1003.76
2022-08-21T11:59:53.309Z,1003.71
2022-08-21T12:00:53.315Z,1003.67
2022-08-21T12:01:53.287Z,1003.65
2022-08-21T12:02:53.331Z,1003.63
2022-08-21T12:03:53.294Z,1003.63
2022-08-21T12:04:53.319Z,1003.67
2022-08-21T12:05:53.242Z,1003.69
2022-08-21T12:06:53.235Z,1003.72
2022-08-21T12:07:53.235Z,1003.66